createdAt,value
2022-10-17T00:04:27.135Z,0
2022-10-17T00:09:27.138Z,0
2022-10-17T00:14:27.040Z,0
2022-10-17T00:24:27.534Z,0
2022-10-17T00:29:28.252Z,0
2022-10-17T00:34:27.312Z,0
2022-10-17T00:39:27.478Z,0
2022-10-17T00:44:27.221Z,0
2022-10-17T00:49:27.143Z,0
2022-10-17T00:54:27.118Z,0
2022-10-17T00:59:27.107Z,0
2022-10-17T01:04:27.086Z,0
2022-10-17T01:09:27.081Z,0
2022-10-17T01:14:27.151Z,0
2022-10-17T01:19:27.113Z,0
2022-10-17T01:24:27.096Z,0
2022-10-17T01:29:27.130Z,0
2022-10-17T01:34:27.077Z,0
2022-10-17T01:39:30.225Z,0
2022-10-17T01:44:27.085Z,0
2022-10-17T01:49:27.097Z,0
2022-10-17T01:54:27.130Z,0
2022-10-17T01:59:27.081Z,0
2022-10-17T02:04:27.110Z,0
2022-10-17T02:09:27.109Z,0
2022-10-17T02:14:27.093Z,0
2022-10-17T02:19:27.170Z,0
2022-10-17T02:24:27.126Z,0
2022-10-17T02:29:27.102Z,0
2022-10-17T02:34:27.131Z,0
2022-10-17T02:39:27.104Z,0
2022-10-17T02:44:27.106Z,0
2022-10-17T02:49:27.103Z,0
2022-10-17T02:54:27.137Z,0
2022-10-17T02:59:27.104Z,0
2022-10-17T03:04:27.193Z,0
2022-10-17T03:09:27.215Z,0
2022-10-17T03:14:27.158Z,0
2022-10-17T03:19:27.130Z,0
2022-10-17T03:24:27.114Z,0
2022-10-17T03:29:27.132Z,0
2022-10-17T03:34:27.101Z,0
2022-10-17T03:39:27.104Z,0
2022-10-17T03:44:27.104Z,0
2022-10-17T03:49:27.109Z,0
2022-10-17T03:54:27.152Z,0
2022-10-17T03:59:27.196Z,0
2022-10-17T04:04:27.102Z,0
2022-10-17T04:09:27.117Z,0
2022-10-17T04:14:27.114Z,0
2022-10-17T04:19:27.135Z,0
2022-10-17T04:24:27.189Z,0
2022-10-17T04:29:27.184Z,0
2022-10-17T04:34:29.137Z,0
2022-10-17T04:39:27.141Z,0
2022-10-17T04:44:27.135Z,0
2022-10-17T04:49:27.134Z,0
2022-10-17T04:54:27.124Z,0
2022-10-17T04:59:27.119Z,0
2022-10-17T05:04:27.146Z,0
2022-10-17T05:09:27.140Z,0
2022-10-17T05:14:27.154Z,0
2022-10-17T05:19:27.278Z,0
2022-10-17T05:24:27.166Z,0
2022-10-17T05:29:27.142Z,0
2022-10-17T05:34:27.177Z,0
2022-10-17T05:39:27.153Z,0
2022-10-17T05:44:27.142Z,0
2022-10-17T05:49:43.860Z,265
2022-10-17T05:54:27.124Z,265
2022-10-17T05:59:27.166Z,269
2022-10-17T06:04:27.202Z,270
2022-10-17T06:09:27.162Z,273
2022-10-17T06:14:27.203Z,275
2022-10-17T06:19:27.185Z,279
2022-10-17T06:24:27.137Z,280
2022-10-17T06:29:27.314Z,284
2022-10-17T06:34:27.101Z,285
2022-10-17T06:39:27.247Z,287
2022-10-17T06:44:27.249Z,287
2022-10-17T06:49:27.165Z,293
2022-10-17T06:54:27.200Z,296
2022-10-17T06:59:27.168Z,299
2022-10-17T07:04:27.148Z,301
2022-10-17T07:09:27.171Z,299
2022-10-17T07:14:27.167Z,305
2022-10-17T07:19:27.154Z,310
2022-10-17T07:24:27.139Z,305
2022-10-17T07:29:27.134Z,307
2022-10-17T07:34:27.138Z,313
2022-10-17T07:39:27.184Z,315
2022-10-17T07:44:27.153Z,326
2022-10-17T07:49:27.266Z,328
2022-10-17T07:54:27.229Z,961
2022-10-17T07:59:27.254Z,1532
2022-10-17T08:04:27.197Z,1658
2022-10-17T08:09:27.166Z,1746
2022-10-17T08:14:27.191Z,1733
2022-10-17T08:19:27.256Z,1731
2022-10-17T08:24:27.281Z,1751
2022-10-17T08:29:27.202Z,1807
2022-10-17T08:34:27.223Z,1705
2022-10-17T08:39:27.186Z,1851
2022-10-17T08:44:27.165Z,1812
2022-10-17T08:49:27.178Z,1716
2022-10-17T09:04:27.401Z,1897
2022-10-17T09:09:27.167Z,1832
2022-10-17T09:14:27.222Z,2050
2022-10-17T09:19:27.237Z,1847
2022-10-17T09:24:27.181Z,1963
2022-10-17T09:29:35.453Z,1877
2022-10-17T09:34:28.232Z,1801
2022-10-17T09:39:27.164Z,2046
2022-10-17T09:44:27.192Z,1990
2022-10-17T09:49:27.201Z,1658
2022-10-17T09:54:27.150Z,1259
2022-10-17T09:59:27.189Z,735
2022-10-17T10:04:33.694Z,382
2022-10-17T10:09:27.204Z,348
2022-10-17T10:14:27.215Z,339
2022-10-17T10:19:27.174Z,361
2022-10-17T10:24:31.153Z,356
2022-10-17T10:29:27.237Z,336
2022-10-17T10:34:27.248Z,338
2022-10-17T10:39:27.187Z,343
2022-10-17T10:44:27.205Z,347
2022-10-17T10:49:27.217Z,339
2022-10-17T10:54:27.325Z,327
2022-10-17T10:59:27.231Z,322
2022-10-17T11:04:27.418Z,329
2022-10-17T11:09:31.456Z,328
2022-10-17T11:14:29.460Z,322
2022-10-17T11:19:27.221Z,323
2022-10-17T11:24:27.185Z,319
2022-10-17T11:29:27.296Z,323
2022-10-17T11:34:27.190Z,329
2022-10-17T11:39:27.241Z,328
2022-10-17T11:44:27.347Z,325
2022-10-17T11:49:28.404Z,322
2022-10-17T11:54:27.245Z,320
2022-10-17T11:59:27.228Z,325
2022-10-17T12:04:27.355Z,331
2022-10-17T12:09:27.233Z,324
2022-10-17T12:14:27.205Z,324
2022-10-17T12:19:27.290Z,370
2022-10-17T12:24:27.272Z,366
2022-10-17T12:29:27.248Z,325
2022-10-17T12:34:27.218Z,311
2022-10-17T12:39:27.251Z,307
2022-10-17T12:44:27.249Z,306
2022-10-17T12:49:27.237Z,309
2022-10-17T12:54:27.246Z,309
2022-10-17T12:59:27.252Z,334
2022-10-17T13:04:27.259Z,311
2022-10-17T13:09:27.271Z,307
2022-10-17T13:14:27.235Z,305
2022-10-17T13:19:27.345Z,334
2022-10-17T13:24:27.238Z,300
2022-10-17T13:29:27.275Z,298
2022-10-17T13:34:27.309Z,300
2022-10-17T13:39:45.180Z,300
2022-10-17T13:44:27.241Z,294
2022-10-17T13:49:30.236Z,297
2022-10-17T13:54:27.248Z,295
2022-10-17T13:59:27.361Z,298
2022-10-17T14:04:27.287Z,289
2022-10-17T14:09:27.297Z,289
2022-10-17T14:14:27.320Z,292
2022-10-17T14:19:27.242Z,293
2022-10-17T14:24:27.276Z,290
2022-10-17T14:29:27.350Z,289
2022-10-17T14:34:27.274Z,290
2022-10-17T14:39:27.230Z,290
2022-10-17T14:44:27.359Z,298
2022-10-17T14:49:27.311Z,287
2022-10-17T14:54:27.375Z,292
2022-10-17T14:59:52.617Z,291
2022-10-17T15:04:27.295Z,284
2022-10-17T15:09:27.232Z,285
2022-10-17T15:14:27.305Z,281
2022-10-17T15:19:27.286Z,279
2022-10-17T15:24:27.293Z,279
2022-10-17T15:29:27.280Z,276
2022-10-17T15:34:27.412Z,272
2022-10-17T15:39:27.247Z,273
2022-10-17T15:44:27.261Z,272
2022-10-17T15:49:27.261Z,270
2022-10-17T15:54:27.315Z,268
2022-10-17T15:59:27.315Z,267
2022-10-17T16:04:27.341Z,265
2022-10-17T16:09:27.307Z,265
2022-10-17T16:14:27.310Z,0
2022-10-17T16:19:27.283Z,0
2022-10-17T16:24:27.284Z,0
2022-10-17T16:29:27.296Z,0
2022-10-17T16:34:27.291Z,0
2022-10-17T16:44:27.335Z,0
2022-10-17T16:49:27.340Z,0
2022-10-17T16:54:27.333Z,0
2022-10-17T16:59:27.282Z,0
2022-10-17T17:04:27.332Z,0
2022-10-17T17:09:27.295Z,0
2022-10-17T17:14:27.397Z,0
2022-10-17T17:19:27.340Z,0
2022-10-17T17:24:27.318Z,0
2022-10-17T17:29:27.290Z,0
2022-10-17T17:34:27.332Z,0
2022-10-17T17:39:27.403Z,0
2022-10-17T17:44:27.324Z,0
2022-10-17T17:49:27.344Z,0
2022-10-17T17:54:27.463Z,0
2022-10-17T17:59:27.350Z,0
2022-10-17T18:04:27.357Z,0
2022-10-17T18:09:27.427Z,0
2022-10-17T18:14:27.414Z,0
2022-10-17T18:19:28.582Z,0
2022-10-17T18:24:27.341Z,0
2022-10-17T18:29:27.345Z,0
2022-10-17T18:34:27.306Z,0
2022-10-17T18:39:27.343Z,0
2022-10-17T18:44:27.447Z,0
2022-10-17T18:49:27.366Z,0
2022-10-17T18:54:27.343Z,0
2022-10-17T18:59:27.389Z,0
2022-10-17T19:04:27.330Z,0
2022-10-17T19:09:27.340Z,0
2022-10-17T19:14:27.397Z,0
2022-10-17T19:19:27.526Z,0
2022-10-17T19:24:27.366Z,0
2022-10-17T19:29:27.321Z,0
2022-10-17T19:34:27.349Z,0
2022-10-17T19:39:27.375Z,0
2022-10-17T19:44:27.365Z,0
2022-10-17T19:49:27.373Z,0
2022-10-17T19:54:27.443Z,0
2022-10-17T19:59:27.402Z,0
2022-10-17T20:04:27.356Z,0
2022-10-17T20:09:27.371Z,0
2022-10-17T20:14:27.362Z,0
2022-10-17T20:19:27.327Z,0
2022-10-17T20:24:27.371Z,0
2022-10-17T20:29:27.348Z,0
2022-10-17T20:34:27.338Z,0
2022-10-17T20:39:27.397Z,0
2022-10-17T20:44:27.404Z,0
2022-10-17T20:49:27.361Z,0
2022-10-17T20:54:27.330Z,0
2022-10-17T20:59:27.347Z,0
2022-10-17T21:04:46.147Z,0
2022-10-17T21:09:27.360Z,0
2022-10-17T21:14:27.351Z,0
2022-10-17T21:19:27.357Z,0
2022-10-17T21:24:27.369Z,0
2022-10-17T21:29:27.403Z,0
2022-10-17T21:34:27.369Z,0
2022-10-17T21:39:27.392Z,0
2022-10-17T21:44:27.494Z,0
2022-10-17T21:49:27.531Z,0
2022-10-17T21:54:27.404Z,0
2022-10-17T21:59:27.387Z,0
2022-10-17T22:04:27.403Z,0
2022-10-17T22:09:27.379Z,0
2022-10-17T22:14:27.417Z,0
2022-10-17T22:19:27.986Z,0
2022-10-17T22:24:27.370Z,0
2022-10-17T22:29:27.467Z,0
2022-10-17T22:34:27.398Z,0
2022-10-17T22:39:27.391Z,0
2022-10-17T22:44:27.400Z,0
2022-10-17T22:49:27.369Z,0
2022-10-17T22:54:27.385Z,0
2022-10-17T22:59:27.444Z,0
2022-10-17T23:04:27.366Z,0
2022-10-17T23:09:28.527Z,0
2022-10-17T23:14:27.413Z,0
2022-10-17T23:19:27.429Z,0
2022-10-17T23:24:27.427Z,0
2022-10-17T23:29:27.403Z,0
2022-10-17T23:34:27.391Z,0
2022-10-17T23:39:27.347Z,0
2022-10-17T23:44:27.411Z,0
2022-10-17T23:49:27.457Z,0
2022-10-17T23:54:27.396Z,0
2022-10-17T23:59:30.926Z,0
